createdAt,value
2022-08-04T00:01:00.292Z,20.77
2022-08-04T00:03:33.816Z,20.92
2022-08-04T00:06:04.833Z,20.88
2022-08-04T00:08:41.202Z,20.93
2022-08-04T00:11:15.630Z,20.80
2022-08-04T00:13:52.707Z,20.89
2022-08-04T00:16:37.579Z,21.01
2022-08-04T00:19:07.150Z,21.01
2022-08-04T00:21:37.891Z,20.84
2022-08-04T00:24:10.762Z,20.78
2022-08-04T00:26:40.994Z,20.65
2022-08-04T00:29:08.731Z,20.63
2022-08-04T00:31:57.162Z,20.66
2022-08-04T00:34:26.659Z,20.78
2022-08-04T00:36:55.397Z,20.83
2022-08-04T00:39:24.567Z,20.73
2022-08-04T00:42:15.170Z,20.79
2022-08-04T00:44:53.084Z,20.76
2022-08-04T00:47:34.372Z,20.74
2022-08-04T00:50:07.508Z,20.97
2022-08-04T00:52:43.283Z,20.91
2022-08-04T00:55:32.783Z,20.71
2022-08-04T00:58:13.998Z,20.62
2022-08-04T01:00:45.671Z,20.61
2022-08-04T01:03:19.215Z,20.68
2022-08-04T01:05:57.110Z,20.60
2022-08-04T01:08:37.435Z,20.57
2022-08-04T01:11:14.777Z,20.52
2022-08-04T01:14:00.016Z,20.60
2022-08-04T01:16:28.503Z,20.62
2022-08-04T01:19:01.207Z,20.62
2022-08-04T01:22:03.154Z,20.58
2022-08-04T01:24:46.545Z,20.57
2022-08-04T01:27:29.264Z,20.47
2022-08-04T01:30:01.209Z,20.48
2022-08-04T01:32:34.008Z,20.60
2022-08-04T01:35:07.406Z,20.62
2022-08-04T01:37:50.413Z,20.64
2022-08-04T01:40:18.432Z,20.60
2022-08-04T01:42:46.504Z,20.56
2022-08-04T01:45:16.000Z,20.64
2022-08-04T01:47:50.139Z,20.67
2022-08-04T01:50:17.854Z,20.58
2022-08-04T01:52:50.921Z,20.57
2022-08-04T01:55:19.338Z,20.60
2022-08-04T01:57:48.851Z,20.65
2022-08-04T02:00:19.623Z,20.61
2022-08-04T02:02:47.813Z,20.52
2022-08-04T02:05:18.074Z,20.49
2022-08-04T02:07:55.231Z,20.50
2022-08-04T02:10:29.155Z,20.58
2022-08-04T02:13:10.339Z,20.56
2022-08-04T02:15:44.826Z,20.61
2022-08-04T02:18:17.487Z,20.48
2022-08-04T02:20:47.390Z,20.51
2022-08-04T02:23:16.482Z,20.45
2022-08-04T02:25:47.676Z,20.40
2022-08-04T02:28:24.098Z,20.44
2022-08-04T02:31:00.001Z,20.42
2022-08-04T02:33:32.885Z,20.45
2022-08-04T02:36:02.617Z,20.48
2022-08-04T02:38:41.607Z,20.46
2022-08-04T02:41:10.715Z,20.44
2022-08-04T02:43:52.131Z,20.41
2022-08-04T02:46:22.941Z,20.41
2022-08-04T02:48:51.728Z,20.39
2022-08-04T02:51:23.845Z,20.39
2022-08-04T02:53:54.559Z,20.33
2022-08-04T02:56:23.180Z,20.33
2022-08-04T02:58:54.076Z,20.38
2022-08-04T03:01:24.906Z,20.31
2022-08-04T03:04:01.162Z,20.23
2022-08-04T03:07:04.084Z,20.27
2022-08-04T03:09:52.547Z,20.33
2022-08-04T03:12:35.191Z,20.29
2022-08-04T03:15:27.459Z,20.26
2022-08-04T03:18:16.127Z,20.25
2022-08-04T03:21:14.038Z,20.20
2022-08-04T03:24:01.780Z,20.22
2022-08-04T03:26:55.124Z,20.24
2022-08-04T03:30:02.416Z,20.23
2022-08-04T03:33:09.064Z,20.20
2022-08-04T03:36:31.906Z,20.25
2022-08-04T03:39:48.659Z,20.21
2022-08-04T03:42:48.997Z,20.27
2022-08-04T03:45:50.035Z,20.24
2022-08-04T03:48:50.286Z,20.24
2022-08-04T03:51:46.450Z,20.23
2022-08-04T03:54:35.922Z,20.23
2022-08-04T03:57:38.853Z,20.22
2022-08-04T04:00:09.992Z,20.20
2022-08-04T04:02:59.979Z,20.07
2022-08-04T04:06:17.995Z,20.15
2022-08-04T04:09:16.210Z,20.21
2022-08-04T04:12:21.703Z,20.33
2022-08-04T04:15:10.157Z,20.34
2022-08-04T04:18:03.061Z,20.34
2022-08-04T04:20:59.009Z,20.42
2022-08-04T04:23:45.444Z,20.43
2022-08-04T04:26:33.892Z,20.50
2022-08-04T04:29:19.954Z,20.57
2022-08-04T04:31:58.551Z,20.65
2022-08-04T04:34:36.782Z,20.70
2022-08-04T04:37:16.568Z,20.75
2022-08-04T04:39:55.210Z,20.84
2022-08-04T04:42:37.760Z,20.91
2022-08-04T04:45:14.012Z,21.01
2022-08-04T04:48:08.711Z,21.14
2022-08-04T04:50:46.287Z,21.17
2022-08-04T04:53:29.995Z,21.36
2022-08-04T04:56:03.370Z,21.43
2022-08-04T04:58:33.103Z,21.49
2022-08-04T05:01:17.107Z,21.63
2022-08-04T05:04:06.608Z,21.74
2022-08-04T05:06:46.548Z,21.89
2022-08-04T05:09:43.624Z,21.77
2022-08-04T05:14:32.367Z,21.88
2022-08-04T05:15:25.171Z,21.89
2022-08-04T05:17:55.236Z,22.07
2022-08-04T05:20:26.880Z,22.07
2022-08-04T05:22:56.883Z,22.17
2022-08-04T05:25:27.107Z,22.30
2022-08-04T05:27:58.926Z,22.52
2022-08-04T05:30:28.555Z,22.86
2022-08-04T05:33:00.814Z,23.26
2022-08-04T05:35:55.849Z,23.23
2022-08-04T05:38:23.608Z,23.79
2022-08-04T05:40:52.467Z,24.02
2022-08-04T05:43:23.546Z,24.82
2022-08-04T05:45:52.290Z,26.02
2022-08-04T05:48:20.179Z,25.72
2022-08-04T05:50:49.463Z,26.24
2022-08-04T05:53:18.345Z,25.73
2022-08-04T05:55:48.865Z,26.27
2022-08-04T05:58:28.816Z,26.00
2022-08-04T06:00:56.834Z,25.34
2022-08-04T06:03:25.094Z,24.69
2022-08-04T06:05:55.275Z,26.22
2022-08-04T06:08:24.133Z,27.29
2022-08-04T06:10:52.592Z,27.45
2022-08-04T06:13:46.635Z,26.57
2022-08-04T06:16:17.794Z,27.41
2022-08-04T06:19:59.590Z,27.83
2022-08-04T06:21:36.417Z,27.40
2022-08-04T06:24:06.036Z,27.57
2022-08-04T06:26:35.007Z,27.00
2022-08-04T06:29:04.754Z,28.20
2022-08-04T06:32:27.478Z,28.20
2022-08-04T06:34:32.115Z,28.13
2022-08-04T06:37:01.571Z,28.93
2022-08-04T06:39:30.473Z,28.55
2022-08-04T06:42:19.993Z,27.82
2022-08-04T06:44:45.848Z,27.20
2022-08-04T06:47:14.207Z,28.37
2022-08-04T06:49:55.170Z,27.47
2022-08-04T06:52:32.249Z,27.77
2022-08-04T06:55:00.341Z,26.29
2022-08-04T06:57:29.356Z,27.47
2022-08-04T06:59:59.536Z,27.65
2022-08-04T07:02:30.099Z,27.93
2022-08-04T07:04:58.093Z,28.22
2022-08-04T07:07:33.907Z,26.78
2022-08-04T07:10:07.779Z,25.37
2022-08-04T07:12:35.927Z,25.67
2022-08-04T07:15:04.923Z,25.94
2022-08-04T07:17:34.634Z,26.64
2022-08-04T07:20:03.072Z,26.59
2022-08-04T07:22:30.924Z,26.66
2022-08-04T07:24:59.764Z,26.61
2022-08-04T07:27:48.167Z,26.00
2022-08-04T07:30:20.664Z,26.55
2022-08-04T07:32:52.619Z,25.84
2022-08-04T07:36:09.878Z,26.68
2022-08-04T07:38:11.203Z,26.92
2022-08-04T07:40:39.529Z,26.10
2022-08-04T07:43:09.734Z,27.10
2022-08-04T07:45:37.564Z,26.44
2022-08-04T07:48:07.177Z,26.17
2022-08-04T07:50:35.163Z,27.26
2022-08-04T07:53:54.442Z,27.05
2022-08-04T07:55:50.901Z,28.15
2022-08-04T07:58:20.136Z,26.52
2022-08-04T08:00:48.508Z,26.91
2022-08-04T08:03:17.166Z,28.37
2022-08-04T08:06:18.237Z,28.09
2022-08-04T08:08:38.981Z,27.44
2022-08-04T08:11:06.724Z,25.73
2022-08-04T08:13:35.905Z,27.01
2022-08-04T08:16:03.732Z,27.08
2022-08-04T08:18:31.600Z,27.43
2022-08-04T08:20:59.531Z,28.07
2022-08-04T08:23:27.446Z,27.43
2022-08-04T08:25:55.170Z,27.22
2022-08-04T08:28:22.902Z,27.34
2022-08-04T08:30:52.859Z,27.54
2022-08-04T08:33:21.697Z,27.65
2022-08-04T08:35:54.900Z,27.44
2022-08-04T08:38:30.239Z,26.89
2022-08-04T08:41:15.490Z,26.99
2022-08-04T08:44:05.699Z,26.83
2022-08-04T08:46:50.113Z,27.13
2022-08-04T08:50:00.621Z,27.34
2022-08-04T08:53:01.614Z,27.51
2022-08-04T08:55:39.708Z,26.43
2022-08-04T08:58:22.257Z,27.17
2022-08-04T09:00:57.192Z,26.97
2022-08-04T09:03:43.430Z,26.77
2022-08-04T09:06:24.951Z,27.38
2022-08-04T09:09:23.278Z,27.74
2022-08-04T09:11:57.261Z,27.71
2022-08-04T09:14:30.246Z,27.82
2022-08-04T09:17:02.758Z,27.89
2022-08-04T09:19:37.368Z,27.77
2022-08-04T09:22:13.021Z,27.68
2022-08-04T09:24:49.525Z,27.94
2022-08-04T09:27:20.481Z,28.20
2022-08-04T09:29:53.537Z,28.16
2022-08-04T09:32:28.204Z,28.42
2022-08-04T09:35:08.600Z,28.44
2022-08-04T09:37:46.070Z,28.72
2022-08-04T09:40:31.425Z,28.31
2022-08-04T09:43:19.779Z,28.94
2022-08-04T09:45:53.584Z,28.94
2022-08-04T09:48:28.479Z,29.36
2022-08-04T09:51:00.219Z,29.28
2022-08-04T09:53:47.888Z,29.15
2022-08-04T09:56:23.479Z,29.22
2022-08-04T09:58:55.191Z,29.06
2022-08-04T10:01:24.503Z,28.88
2022-08-04T10:03:55.805Z,29.02
2022-08-04T10:06:37.703Z,29.59
2022-08-04T10:09:15.135Z,29.85
2022-08-04T10:11:56.698Z,29.94
2022-08-04T10:14:47.442Z,29.50
2022-08-04T10:17:49.142Z,29.83
2022-08-04T10:20:44.494Z,30.28
2022-08-04T10:23:21.852Z,31.02
2022-08-04T10:26:07.206Z,30.66
2022-08-04T10:28:41.844Z,30.23
2022-08-04T10:31:11.310Z,30.64
2022-08-04T10:33:43.868Z,30.60
2022-08-04T10:36:14.180Z,30.54
2022-08-04T10:38:51.408Z,30.22
2022-08-04T10:41:24.917Z,29.99
2022-08-04T10:44:09.543Z,30.48
2022-08-04T10:46:38.932Z,30.28
2022-08-04T10:49:15.067Z,30.31
2022-08-04T10:51:57.431Z,30.36
2022-08-04T10:54:33.281Z,29.82
2022-08-04T10:57:06.644Z,29.79
2022-08-04T10:59:38.932Z,29.87
2022-08-04T11:02:18.195Z,30.27
2022-08-04T11:04:48.981Z,30.77
2022-08-04T11:07:17.869Z,31.06
2022-08-04T11:09:47.015Z,31.08
2022-08-04T11:12:18.925Z,31.18
2022-08-04T11:14:52.797Z,30.62
2022-08-04T11:17:22.680Z,30.45
2022-08-04T11:20:18.304Z,30.73
2022-08-04T11:22:51.371Z,30.68
2022-08-04T11:25:22.247Z,31.37
2022-08-04T11:27:56.666Z,30.73
2022-08-04T11:30:26.508Z,31.15
2022-08-04T11:33:01.691Z,31.11
2022-08-04T11:35:33.067Z,30.92
2022-08-04T11:38:07.896Z,29.85
2022-08-04T11:40:41.240Z,30.04
2022-08-04T11:43:56.656Z,29.72
2022-08-04T11:46:25.359Z,29.52
2022-08-04T11:48:57.712Z,28.98
2022-08-04T11:51:28.166Z,28.49
2022-08-04T11:53:57.062Z,28.38
2022-08-04T11:56:35.749Z,27.11
2022-08-04T11:59:04.201Z,26.57
2022-08-04T12:01:39.849Z,26.44
2022-08-04T12:04:15.046Z,25.96
2022-08-04T12:06:56.905Z,25.24
2022-08-04T12:09:37.743Z,24.15
2022-08-04T12:12:22.158Z,23.07
2022-08-04T12:14:55.097Z,22.85
2022-08-04T12:17:26.719Z,22.54
2022-08-04T12:20:31.451Z,22.49
2022-08-04T12:22:55.979Z,22.18
2022-08-04T12:25:29.262Z,22.03
2022-08-04T12:28:02.077Z,22.02
2022-08-04T12:30:58.874Z,21.75
2022-08-04T12:34:03.459Z,21.70
2022-08-04T12:36:22.338Z,21.79
2022-08-04T12:38:53.899Z,21.78
2022-08-04T12:41:25.735Z,21.81
2022-08-04T12:43:55.690Z,22.05
2022-08-04T12:46:25.137Z,22.26
2022-08-04T12:48:53.175Z,22.35
2022-08-04T12:51:31.110Z,22.72
2022-08-04T12:54:12.147Z,22.98
2022-08-04T12:56:40.757Z,23.33
2022-08-04T12:59:13.030Z,23.66
2022-08-04T13:02:09.879Z,23.78
2022-08-04T13:04:30.219Z,24.09
2022-08-04T13:06:59.884Z,24.30
2022-08-04T13:09:30.338Z,24.74
2022-08-04T13:12:02.002Z,24.99
2022-08-04T13:14:34.753Z,24.72
2022-08-04T13:17:04.147Z,24.73
2022-08-04T13:19:41.429Z,24.61
2022-08-04T13:22:09.894Z,24.40
2022-08-04T13:25:17.923Z,24.10
2022-08-04T13:27:28.231Z,23.91
2022-08-04T13:30:18.582Z,24.35
2022-08-04T13:32:54.877Z,24.18
2022-08-04T13:35:24.334Z,24.82
2022-08-04T13:38:12.706Z,25.27
2022-08-04T13:40:41.887Z,25.36
2022-08-04T13:44:16.367Z,25.35
2022-08-04T13:46:04.356Z,25.24
2022-08-04T13:48:34.241Z,25.42
2022-08-04T13:51:05.043Z,25.65
2022-08-04T13:53:34.302Z,25.77
2022-08-04T13:56:02.903Z,26.25
2022-08-04T13:58:35.654Z,26.20
2022-08-04T14:01:11.341Z,25.11
2022-08-04T14:03:54.369Z,25.49
2022-08-04T14:06:25.259Z,25.37
2022-08-04T14:08:55.668Z,25.24
2022-08-04T14:12:10.731Z,25.51
2022-08-04T14:14:25.600Z,24.94
2022-08-04T14:17:02.445Z,24.72
2022-08-04T14:19:36.510Z,25.34
2022-08-04T14:22:04.497Z,25.84
2022-08-04T14:24:32.041Z,26.50
2022-08-04T14:27:00.856Z,25.96
2022-08-04T14:29:37.560Z,25.79
2022-08-04T14:32:13.006Z,25.89
2022-08-04T14:34:44.754Z,25.68
2022-08-04T14:37:18.416Z,25.91
2022-08-04T14:40:18.471Z,25.49
2022-08-04T14:42:43.879Z,26.03
2022-08-04T14:45:12.075Z,26.34
2022-08-04T14:47:52.386Z,26.56
2022-08-04T14:50:21.330Z,26.36
2022-08-04T14:52:49.345Z,26.32
2022-08-04T14:55:18.903Z,26.29
2022-08-04T14:58:37.947Z,26.30
2022-08-04T15:00:35.991Z,26.36
2022-08-04T15:03:06.831Z,26.40
2022-08-04T15:06:00.289Z,26.30
2022-08-04T15:08:22.191Z,26.28
2022-08-04T15:10:52.772Z,26.35
2022-08-04T15:13:20.381Z,26.57
2022-08-04T15:16:02.211Z,26.15
2022-08-04T15:18:37.430Z,26.31
2022-08-04T15:21:05.377Z,26.33
2022-08-04T15:23:39.577Z,26.11
2022-08-04T15:26:10.457Z,26.18
2022-08-04T15:28:39.786Z,26.33
2022-08-04T15:31:10.610Z,26.35
2022-08-04T15:33:57.733Z,26.44
2022-08-04T15:36:34.073Z,26.18
2022-08-04T15:39:09.767Z,26.26
2022-08-04T15:41:53.803Z,26.30
2022-08-04T15:44:40.464Z,26.57
2022-08-04T15:47:14.101Z,26.29
2022-08-04T15:49:43.712Z,26.37
2022-08-04T15:52:15.656Z,26.43
2022-08-04T15:54:52.384Z,26.06
2022-08-04T15:57:58.268Z,26.03
2022-08-04T16:00:25.899Z,26.63
2022-08-04T16:02:53.563Z,26.40
2022-08-04T16:05:36.878Z,26.11
2022-08-04T16:08:15.275Z,25.73
2022-08-04T16:10:44.873Z,25.85
2022-08-04T16:13:14.825Z,26.63
2022-08-04T16:15:50.292Z,26.44
2022-08-04T16:18:26.492Z,26.14
2022-08-04T16:20:59.296Z,26.23
2022-08-04T16:24:00.640Z,26.37
2022-08-04T16:26:58.686Z,26.56
2022-08-04T16:29:44.273Z,26.73
2022-08-04T16:32:18.044Z,26.93
2022-08-04T16:34:54.825Z,26.59
2022-08-04T16:37:31.206Z,26.35
2022-08-04T16:40:37.234Z,26.57
2022-08-04T16:43:09.161Z,26.43
2022-08-04T16:45:52.497Z,26.31
2022-08-04T16:48:21.078Z,26.44
2022-08-04T16:50:55.455Z,26.36
2022-08-04T16:54:04.072Z,26.11
2022-08-04T16:56:15.319Z,26.01
2022-08-04T16:58:53.147Z,26.04
2022-08-04T17:01:32.575Z,26.08
2022-08-04T17:04:06.109Z,26.09
2022-08-04T17:06:35.835Z,25.75
2022-08-04T17:09:11.451Z,25.82
2022-08-04T17:11:39.327Z,26.00
2022-08-04T17:14:07.032Z,26.02
2022-08-04T17:16:36.332Z,26.00
2022-08-04T17:19:04.782Z,26.00
2022-08-04T17:21:34.428Z,25.74
2022-08-04T17:24:14.987Z,25.41
2022-08-04T17:29:42.794Z,24.82
2022-08-04T17:32:15.043Z,24.94
2022-08-04T17:34:44.603Z,25.01
2022-08-04T17:40:09.910Z,24.59
2022-08-04T17:42:40.375Z,24.44
2022-08-04T17:47:59.695Z,24.52
2022-08-04T17:50:27.652Z,24.35
2022-08-04T17:53:02.107Z,24.40
2022-08-04T17:55:43.176Z,24.31
2022-08-04T17:58:21.165Z,24.38
2022-08-04T18:00:52.017Z,24.19
2022-08-04T18:03:30.123Z,24.06
2022-08-04T18:06:03.366Z,23.77
2022-08-04T18:08:41.355Z,23.59
2022-08-04T18:11:22.042Z,23.70
2022-08-04T18:13:57.136Z,23.67
2022-08-04T18:16:25.340Z,23.72
2022-08-04T18:19:11.141Z,23.84
2022-08-04T18:21:46.524Z,23.94
2022-08-04T18:24:34.175Z,23.76
2022-08-04T18:27:20.451Z,23.58
2022-08-04T18:29:56.422Z,23.66
2022-08-04T18:32:37.063Z,23.55
2022-08-04T18:35:19.288Z,23.37
2022-08-04T18:40:53.460Z,23.12
2022-08-04T18:43:28.665Z,22.87
2022-08-04T18:45:59.795Z,22.71
2022-08-04T18:48:35.912Z,22.65
2022-08-04T18:51:09.941Z,22.54
2022-08-04T18:53:54.951Z,22.42
2022-08-04T18:56:29.873Z,22.38
2022-08-04T18:59:01.247Z,22.19
2022-08-04T19:02:13.399Z,22.12
2022-08-04T19:04:32.967Z,22.02
2022-08-04T19:07:24.707Z,21.87
2022-08-04T19:09:52.004Z,21.77
2022-08-04T19:12:26.906Z,21.75
2022-08-04T19:14:58.378Z,21.70
2022-08-04T19:20:25.893Z,21.44
2022-08-04T19:24:28.812Z,21.45
2022-08-04T19:25:58.820Z,21.32
2022-08-04T19:28:34.183Z,21.28
2022-08-04T19:31:03.365Z,21.16
2022-08-04T19:33:58.730Z,21.19
2022-08-04T19:36:20.664Z,21.12
2022-08-04T19:38:56.155Z,20.99
2022-08-04T19:41:23.961Z,20.97
2022-08-04T19:43:54.609Z,20.94
2022-08-04T19:46:24.813Z,20.86
2022-08-04T19:48:59.400Z,20.91
2022-08-04T19:51:29.810Z,20.75
2022-08-04T19:54:02.963Z,20.77
2022-08-04T19:56:40.930Z,20.61
2022-08-04T19:59:09.576Z,20.63
2022-08-04T20:01:44.390Z,20.50
2022-08-04T20:04:14.231Z,20.56
2022-08-04T20:06:42.406Z,20.38
2022-08-04T20:09:24.964Z,20.50
2022-08-04T20:11:54.858Z,20.40
2022-08-04T20:14:31.221Z,20.34
2022-08-04T20:17:00.660Z,20.40
2022-08-04T20:19:30.389Z,20.32
2022-08-04T20:21:58.291Z,20.15
2022-08-04T20:24:38.832Z,20.16
2022-08-04T20:27:15.620Z,20.10
2022-08-04T20:29:50.952Z,20.12
2022-08-04T20:32:20.194Z,20.07
2022-08-04T20:34:51.963Z,19.97
2022-08-04T20:37:20.713Z,20.05
2022-08-04T20:39:54.384Z,19.98
2022-08-04T20:42:27.049Z,20.00
2022-08-04T20:44:56.197Z,19.90
2022-08-04T20:47:26.071Z,19.89
2022-08-04T20:49:55.859Z,19.84
2022-08-04T20:52:23.480Z,19.85
2022-08-04T20:54:56.158Z,19.82
2022-08-04T20:57:49.838Z,19.77
2022-08-04T21:00:13.134Z,19.73
2022-08-04T21:02:41.456Z,19.82
2022-08-04T21:05:11.067Z,19.73
2022-08-04T21:07:43.820Z,19.77
2022-08-04T21:10:17.044Z,19.91
2022-08-04T21:12:49.871Z,19.89
2022-08-04T21:15:24.843Z,19.76
2022-08-04T21:17:58.112Z,19.67
2022-08-04T21:20:33.620Z,19.72
2022-08-04T21:23:03.632Z,19.76
2022-08-04T21:25:32.799Z,19.71
2022-08-04T21:28:10.871Z,19.59
2022-08-04T21:30:54.171Z,19.57
2022-08-04T21:33:24.467Z,19.54
2022-08-04T21:36:12.995Z,19.49
2022-08-04T21:38:41.801Z,19.55
2022-08-04T21:41:20.415Z,19.46
2022-08-04T21:43:52.925Z,19.42
2022-08-04T21:46:20.950Z,19.41
2022-08-04T21:48:49.469Z,19.29
2022-08-04T21:51:56.815Z,19.22
2022-08-04T21:54:09.073Z,19.10
2022-08-04T21:56:38.068Z,19.06
2022-08-04T21:59:11.429Z,19.02
2022-08-04T22:01:52.470Z,19.13
2022-08-04T22:04:22.679Z,19.13
2022-08-04T22:06:52.763Z,19.16
2022-08-04T22:09:21.620Z,19.04
2022-08-04T22:11:50.722Z,19.09
2022-08-04T22:14:21.765Z,19.10
2022-08-04T22:16:57.703Z,19.07
2022-08-04T22:19:49.779Z,19.13
2022-08-04T22:22:25.946Z,19.16
2022-08-04T22:24:54.649Z,19.04
2022-08-04T22:27:36.227Z,19.04
2022-08-04T22:30:13.353Z,18.73
2022-08-04T22:32:46.255Z,18.29
2022-08-04T22:35:35.577Z,18.10
2022-08-04T22:38:06.618Z,17.88
2022-08-04T22:40:38.225Z,17.69
2022-08-04T22:43:22.592Z,17.64
2022-08-04T22:45:53.492Z,17.86
2022-08-04T22:48:21.186Z,17.68
2022-08-04T22:50:50.195Z,17.40
2022-08-04T22:53:19.130Z,17.29
2022-08-04T22:56:07.339Z,17.05
2022-08-04T22:58:35.305Z,16.94
2022-08-04T23:01:03.159Z,16.94
2022-08-04T23:03:37.192Z,16.92
2022-08-04T23:06:07.095Z,16.90
2022-08-04T23:08:43.307Z,16.72
2022-08-04T23:11:15.065Z,16.81
2022-08-04T23:13:42.724Z,16.87
2022-08-04T23:16:10.943Z,16.73
2022-08-04T23:18:40.243Z,16.68
2022-08-04T23:21:10.983Z,16.47
2022-08-04T23:23:55.725Z,16.56
2022-08-04T23:26:28.399Z,16.24
2022-08-04T23:28:56.696Z,16.12
2022-08-04T23:31:24.343Z,16.08
2022-08-04T23:33:52.529Z,15.97
2022-08-04T23:36:26.312Z,16.11
2022-08-04T23:39:01.422Z,16.00
2022-08-04T23:41:54.114Z,15.97
2022-08-04T23:44:24.798Z,15.96
2022-08-04T23:46:58.646Z,15.99
2022-08-04T23:49:43.996Z,16.07
2022-08-04T23:52:23.467Z,16.08
2022-08-04T23:54:59.443Z,16.08
2022-08-04T23:58:05.142Z,16.33
